Cook, Indiana
Current Conditions -  °F | °C
As of 9:55 PM on Tuesday 25 Nov 2014 (Local Time) from KIGQ Reporting Station
Overcast Overcast  
Wind Chill: 16°   Ceiling: 1400
Heat Index: 23°   Visibility: 10mi
Dew Point: 19°   Wind: 6mph
Humidity: 84%   Direction: 190°S
Pressure: 30.22"   Gusts: NA
Location:  41.3739°N, 87.4748°W
Report Text: KIGQ 260355Z AUTO 19005KT 10SM OVC014 M05/M07 A3022 RMK AO2 T10501074
Loading
Personal Weather Stations






























Interactive Weather Map New forecast layout! Learn more

10-Day Weather Forecast

Advertisements
Track Severe Weather on mobile